sensor_id;sensor_type;location;lat;lon;timestamp;temperature;humidity
21682;DHT22;11002;48.256;10.084;2022-07-30T00:00:10;20.50;46.20
21682;DHT22;11002;48.256;10.084;2022-07-30T00:02:37;20.50;46.20
21682;DHT22;11002;48.256;10.084;2022-07-30T00:05:07;20.60;46.30
21682;DHT22;11002;48.256;10.084;2022-07-30T00:07:34;20.60;46.30
21682;DHT22;11002;48.256;10.084;2022-07-30T00:10:03;20.60;46.30
21682;DHT22;11002;48.256;10.084;2022-07-30T00:12:30;20.50;46.20
21682;DHT22;11002;48.256;10.084;2022-07-30T00:14:59;20.60;46.30
21682;DHT22;11002;48.256;10.084;2022-07-30T00:17:27;20.50;46.20
21682;DHT22;11002;48.256;10.084;2022-07-30T00:19:54;20.50;46.20
21682;DHT22;11002;48.256;10.084;2022-07-30T00:22:21;20.50;46.20
21682;DHT22;11002;48.256;10.084;2022-07-30T00:24:49;20.50;46.20
21682;DHT22;11002;48.256;10.084;2022-07-30T00:27:16;20.60;46.30
21682;DHT22;11002;48.256;10.084;2022-07-30T00:29:43;20.50;46.20
21682;DHT22;11002;48.256;10.084;2022-07-30T00:32:12;20.50;46.20
21682;DHT22;11002;48.256;10.084;2022-07-30T00:34:40;20.50;46.20
21682;DHT22;11002;48.256;10.084;2022-07-30T00:37:07;20.50;46.20
21682;DHT22;11002;48.256;10.084;2022-07-30T00:39:36;20.50;46.20
21682;DHT22;11002;48.256;10.084;2022-07-30T00:42:03;20.50;46.40
21682;DHT22;11002;48.256;10.084;2022-07-30T00:44:31;20.50;46.20
21682;DHT22;11002;48.256;10.084;2022-07-30T00:46:58;20.50;46.20
21682;DHT22;11002;48.256;10.084;2022-07-30T00:49:27;20.50;46.20
21682;DHT22;11002;48.256;10.084;2022-07-30T00:51:55;20.50;46.20
21682;DHT22;11002;48.256;10.084;2022-07-30T00:54:22;20.50;46.20
21682;DHT22;11002;48.256;10.084;2022-07-30T00:56:50;20.50;46.30
21682;DHT22;11002;48.256;10.084;2022-07-30T00:59:18;20.50;46.30
21682;DHT22;11002;48.256;10.084;2022-07-30T01:01:46;20.50;46.20
21682;DHT22;11002;48.256;10.084;2022-07-30T01:04:13;20.50;46.20
21682;DHT22;11002;48.256;10.084;2022-07-30T01:06:42;20.50;46.30
21682;DHT22;11002;48.256;10.084;2022-07-30T01:09:09;20.50;46.30
21682;DHT22;11002;48.256;10.084;2022-07-30T01:11:39;20.50;46.30
21682;DHT22;11002;48.256;10.084;2022-07-30T01:14:08;20.50;46.30
21682;DHT22;11002;48.256;10.084;2022-07-30T01:16:37;20.50;46.20
21682;DHT22;11002;48.256;10.084;2022-07-30T01:19:10;20.50;46.30
21682;DHT22;11002;48.256;10.084;2022-07-30T01:22:05;20.50;46.20
21682;DHT22;11002;48.256;10.084;2022-07-30T01:24:39;20.50;46.20
21682;DHT22;11002;48.256;10.084;2022-07-30T01:27:10;20.50;46.20
21682;DHT22;11002;48.256;10.084;2022-07-30T01:29:38;20.50;46.30
21682;DHT22;11002;48.256;10.084;2022-07-30T01:32:08;20.50;46.30
21682;DHT22;11002;48.256;10.084;2022-07-30T01:34:37;20.50;46.40
21682;DHT22;11002;48.256;10.084;2022-07-30T01:37:06;20.50;46.40
21682;DHT22;11002;48.256;10.084;2022-07-30T01:39:36;20.50;46.30
21682;DHT22;11002;48.256;10.084;2022-07-30T01:42:05;20.50;46.40
21682;DHT22;11002;48.256;10.084;2022-07-30T01:44:37;20.50;46.30
21682;DHT22;11002;48.256;10.084;2022-07-30T01:47:05;20.50;46.30
21682;DHT22;11002;48.256;10.084;2022-07-30T01:49:35;20.50;46.30
21682;DHT22;11002;48.256;10.084;2022-07-30T01:52:04;20.50;46.30
21682;DHT22;11002;48.256;10.084;2022-07-30T01:54:34;20.50;46.30
21682;DHT22;11002;48.256;10.084;2022-07-30T01:57:04;20.50;46.30
21682;DHT22;11002;48.256;10.084;2022-07-30T01:59:35;20.50;46.30
21682;DHT22;11002;48.256;10.084;2022-07-30T02:02:03;20.50;46.30
21682;DHT22;11002;48.256;10.084;2022-07-30T02:04:32;20.50;46.30
21682;DHT22;11002;48.256;10.084;2022-07-30T02:07:02;20.50;46.30
21682;DHT22;11002;48.256;10.084;2022-07-30T02:09:34;20.50;46.30
21682;DHT22;11002;48.256;10.084;2022-07-30T02:12:10;20.50;46.20
21682;DHT22;11002;48.256;10.084;2022-07-30T02:15:08;20.50;46.30
21682;DHT22;11002;48.256;10.084;2022-07-30T02:17:39;20.50;46.40
21682;DHT22;11002;48.256;10.084;2022-07-30T02:20:10;20.50;46.30
21682;DHT22;11002;48.256;10.084;2022-07-30T02:22:40;20.50;46.40
21682;DHT22;11002;48.256;10.084;2022-07-30T02:25:09;20.50;46.40
21682;DHT22;11002;48.256;10.084;2022-07-30T02:27:41;20.50;46.40
21682;DHT22;11002;48.256;10.084;2022-07-30T02:30:11;20.50;46.40
21682;DHT22;11002;48.256;10.084;2022-07-30T02:32:41;20.50;46.40
21682;DHT22;11002;48.256;10.084;2022-07-30T02:35:16;20.50;46.40
21682;DHT22;11002;48.256;10.084;2022-07-30T02:37:46;20.50;46.40
21682;DHT22;11002;48.256;10.084;2022-07-30T02:40:15;20.50;47.10
21682;DHT22;11002;48.256;10.084;2022-07-30T02:42:45;20.50;46.30
21682;DHT22;11002;48.256;10.084;2022-07-30T02:45:18;20.50;46.30
21682;DHT22;11002;48.256;10.084;2022-07-30T02:47:50;20.50;46.30
21682;DHT22;11002;48.256;10.084;2022-07-30T02:50:20;20.50;46.30
21682;DHT22;11002;48.256;10.084;2022-07-30T02:52:50;20.50;46.30
21682;DHT22;11002;48.256;10.084;2022-07-30T02:55:20;20.50;46.40
21682;DHT22;11002;48.256;10.084;2022-07-30T02:57:49;20.50;46.40
21682;DHT22;11002;48.256;10.084;2022-07-30T03:00:20;20.50;46.30
21682;DHT22;11002;48.256;10.084;2022-07-30T03:02:50;20.50;46.30
21682;DHT22;11002;48.256;10.084;2022-07-30T03:05:19;20.50;46.40
21682;DHT22;11002;48.256;10.084;2022-07-30T03:07:47;20.50;46.30
21682;DHT22;11002;48.256;10.084;2022-07-30T03:10:15;20.50;46.40
21682;DHT22;11002;48.256;10.084;2022-07-30T03:12:44;20.50;47.10
21682;DHT22;11002;48.256;10.084;2022-07-30T03:15:13;20.50;46.40
21682;DHT22;11002;48.256;10.084;2022-07-30T03:17:48;20.50;46.40
21682;DHT22;11002;48.256;10.084;2022-07-30T03:20:19;20.50;46.40
21682;DHT22;11002;48.256;10.084;2022-07-30T03:22:50;20.50;46.40
21682;DHT22;11002;48.256;10.084;2022-07-30T03:25:21;20.50;46.40
21682;DHT22;11002;48.256;10.084;2022-07-30T03:27:51;20.50;46.40
21682;DHT22;11002;48.256;10.084;2022-07-30T03:30:21;20.50;46.40
21682;DHT22;11002;48.256;10.084;2022-07-30T03:32:51;20.50;46.40
21682;DHT22;11002;48.256;10.084;2022-07-30T03:35:20;20.50;46.40
21682;DHT22;11002;48.256;10.084;2022-07-30T03:37:50;20.50;47.10
21682;DHT22;11002;48.256;10.084;2022-07-30T03:40:20;20.50;46.40
21682;DHT22;11002;48.256;10.084;2022-07-30T03:42:48;20.50;46.40
21682;DHT22;11002;48.256;10.084;2022-07-30T03:45:20;20.50;46.50
21682;DHT22;11002;48.256;10.084;2022-07-30T03:47:51;20.50;46.40
21682;DHT22;11002;48.256;10.084;2022-07-30T03:50:19;20.50;46.40
21682;DHT22;11002;48.256;10.084;2022-07-30T03:52:47;20.50;46.40
21682;DHT22;11002;48.256;10.084;2022-07-30T03:55:16;20.50;46.40
21682;DHT22;11002;48.256;10.084;2022-07-30T03:57:47;20.50;46.40
21682;DHT22;11002;48.256;10.084;2022-07-30T04:00:16;20.50;46.40
21682;DHT22;11002;48.256;10.084;2022-07-30T04:02:49;20.50;46.40
21682;DHT22;11002;48.256;10.084;2022-07-30T04:05:17;20.50;46.40
21682;DHT22;11002;48.256;10.084;2022-07-30T04:07:46;20.50;46.40
21682;DHT22;11002;48.256;10.084;2022-07-30T04:10:15;20.50;46.40
21682;DHT22;11002;48.256;10.084;2022-07-30T04:13:15;20.50;46.40
21682;DHT22;11002;48.256;10.084;2022-07-30T04:15:48;20.50;46.40
21682;DHT22;11002;48.256;10.084;2022-07-30T04:18:18;20.50;46.40
21682;DHT22;11002;48.256;10.084;2022-07-30T04:20:48;20.50;46.40
21682;DHT22;11002;48.256;10.084;2022-07-30T04:23:17;20.50;46.50
21682;DHT22;11002;48.256;10.084;2022-07-30T04:25:45;20.50;46.40
21682;DHT22;11002;48.256;10.084;2022-07-30T04:28:13;20.50;46.40
21682;DHT22;11002;48.256;10.084;2022-07-30T04:30:41;20.50;46.40
21682;DHT22;11002;48.256;10.084;2022-07-30T04:33:08;20.50;46.40
21682;DHT22;11002;48.256;10.084;2022-07-30T04:35:39;20.50;46.40
21682;DHT22;11002;48.256;10.084;2022-07-30T04:38:16;20.50;46.40
21682;DHT22;11002;48.256;10.084;2022-07-30T04:40:49;20.50;46.40
21682;DHT22;11002;48.256;10.084;2022-07-30T04:43:17;20.50;46.40
21682;DHT22;11002;48.256;10.084;2022-07-30T04:45:44;20.50;46.40
21682;DHT22;11002;48.256;10.084;2022-07-30T04:48:12;20.50;46.40
21682;DHT22;11002;48.256;10.084;2022-07-30T04:50:59;20.50;46.40
21682;DHT22;11002;48.256;10.084;2022-07-30T04:53:31;20.50;46.40
21682;DHT22;11002;48.256;10.084;2022-07-30T04:56:01;20.50;46.40
21682;DHT22;11002;48.256;10.084;2022-07-30T04:58:31;20.50;46.40
21682;DHT22;11002;48.256;10.084;2022-07-30T05:01:01;20.50;46.40
21682;DHT22;11002;48.256;10.084;2022-07-30T05:03:30;20.50;46.40
21682;DHT22;11002;48.256;10.084;2022-07-30T05:06:00;20.50;46.40
21682;DHT22;11002;48.256;10.084;2022-07-30T05:08:33;20.50;46.40
21682;DHT22;11002;48.256;10.084;2022-07-30T05:11:05;20.50;46.40
21682;DHT22;11002;48.256;10.084;2022-07-30T05:13:32;20.50;46.40
21682;DHT22;11002;48.256;10.084;2022-07-30T05:15:59;20.50;46.50
21682;DHT22;11002;48.256;10.084;2022-07-30T05:18:27;20.50;46.40
21682;DHT22;11002;48.256;10.084;2022-07-30T05:20:54;20.50;46.50
21682;DHT22;11002;48.256;10.084;2022-07-30T05:23:27;20.50;46.40
21682;DHT22;11002;48.256;10.084;2022-07-30T05:26:25;20.50;46.40
21682;DHT22;11002;48.256;10.084;2022-07-30T05:28:53;20.50;46.40
21682;DHT22;11002;48.256;10.084;2022-07-30T05:31:25;20.50;46.40
21682;DHT22;11002;48.256;10.084;2022-07-30T05:33:57;20.50;46.40
21682;DHT22;11002;48.256;10.084;2022-07-30T05:36:31;20.50;46.40
21682;DHT22;11002;48.256;10.084;2022-07-30T05:38:59;20.50;46.40
21682;DHT22;11002;48.256;10.084;2022-07-30T05:41:36;20.50;46.50
21682;DHT22;11002;48.256;10.084;2022-07-30T05:44:08;20.50;46.40
21682;DHT22;11002;48.256;10.084;2022-07-30T05:46:36;20.50;46.40
21682;DHT22;11002;48.256;10.084;2022-07-30T05:49:04;20.50;46.50
21682;DHT22;11002;48.256;10.084;2022-07-30T05:51:31;20.50;46.50
21682;DHT22;11002;48.256;10.084;2022-07-30T05:53:59;20.50;46.50
21682;DHT22;11002;48.256;10.084;2022-07-30T05:56:43;20.50;46.50
21682;DHT22;11002;48.256;10.084;2022-07-30T05:59:29;20.50;46.40
21682;DHT22;11002;48.256;10.084;2022-07-30T06:02:12;20.50;46.40
21682;DHT22;11002;48.256;10.084;2022-07-30T06:04:58;20.50;46.40
21682;DHT22;11002;48.256;10.084;2022-07-30T06:07:26;20.50;46.40
21682;DHT22;11002;48.256;10.084;2022-07-30T06:09:55;20.50;46.40
21682;DHT22;11002;48.256;10.084;2022-07-30T06:12:28;20.50;46.50
21682;DHT22;11002;48.256;10.084;2022-07-30T06:14:56;20.50;46.40
21682;DHT22;11002;48.256;10.084;2022-07-30T06:17:30;20.50;46.50
21682;DHT22;11002;48.256;10.084;2022-07-30T06:20:19;20.50;46.50
21682;DHT22;11002;48.256;10.084;2022-07-30T06:23:02;20.50;46.50
21682;DHT22;11002;48.256;10.084;2022-07-30T06:25:46;20.50;46.50
21682;DHT22;11002;48.256;10.084;2022-07-30T06:28:17;20.50;46.40
21682;DHT22;11002;48.256;10.084;2022-07-30T06:30:45;20.50;46.50
21682;DHT22;11002;48.256;10.084;2022-07-30T06:33:14;20.50;46.50
21682;DHT22;11002;48.256;10.084;2022-07-30T06:35:42;20.50;46.50
21682;DHT22;11002;48.256;10.084;2022-07-30T06:38:12;20.50;46.50
21682;DHT22;11002;48.256;10.084;2022-07-30T06:40:53;20.50;46.50
21682;DHT22;11002;48.256;10.084;2022-07-30T06:43:32;20.40;46.40
21682;DHT22;11002;48.256;10.084;2022-07-30T06:46:19;20.50;46.40
21682;DHT22;11002;48.256;10.084;2022-07-30T06:48:49;20.50;46.40
21682;DHT22;11002;48.256;10.084;2022-07-30T06:51:16;20.50;46.50
21682;DHT22;11002;48.256;10.084;2022-07-30T06:53:44;20.50;46.50
21682;DHT22;11002;48.256;10.084;2022-07-30T06:56:12;20.50;46.40
21682;DHT22;11002;48.256;10.084;2022-07-30T06:58:54;20.50;46.50
21682;DHT22;11002;48.256;10.084;2022-07-30T07:01:37;20.50;46.40
21682;DHT22;11002;48.256;10.084;2022-07-30T07:04:04;20.50;46.40
21682;DHT22;11002;48.256;10.084;2022-07-30T07:06:33;20.50;46.40
21682;DHT22;11002;48.256;10.084;2022-07-30T07:09:01;20.50;46.40
21682;DHT22;11002;48.256;10.084;2022-07-30T07:11:44;20.50;46.40
21682;DHT22;11002;48.256;10.084;2022-07-30T07:14:18;20.50;46.40
21682;DHT22;11002;48.256;10.084;2022-07-30T07:16:47;20.50;46.40
21682;DHT22;11002;48.256;10.084;2022-07-30T07:19:33;20.50;46.40
21682;DHT22;11002;48.256;10.084;2022-07-30T07:22:00;20.50;46.50
21682;DHT22;11002;48.256;10.084;2022-07-30T07:24:29;20.50;46.50
21682;DHT22;11002;48.256;10.084;2022-07-30T07:27:03;20.50;46.40
21682;DHT22;11002;48.256;10.084;2022-07-30T07:29:32;20.50;46.40
21682;DHT22;11002;48.256;10.084;2022-07-30T07:32:02;20.50;46.40
21682;DHT22;11002;48.256;10.084;2022-07-30T07:34:30;20.50;46.40
21682;DHT22;11002;48.256;10.084;2022-07-30T07:36:57;20.50;46.40
21682;DHT22;11002;48.256;10.084;2022-07-30T07:39:25;20.50;46.40
21682;DHT22;11002;48.256;10.084;2022-07-30T07:41:53;20.50;46.40
21682;DHT22;11002;48.256;10.084;2022-07-30T07:44:23;20.50;46.40
21682;DHT22;11002;48.256;10.084;2022-07-30T07:46:52;20.50;46.30
21682;DHT22;11002;48.256;10.084;2022-07-30T07:49:20;20.50;46.40
21682;DHT22;11002;48.256;10.084;2022-07-30T07:51:50;20.50;46.40
21682;DHT22;11002;48.256;10.084;2022-07-30T07:54:19;20.50;46.40
21682;DHT22;11002;48.256;10.084;2022-07-30T07:56:48;20.50;46.40
21682;DHT22;11002;48.256;10.084;2022-07-30T07:59:18;20.50;46.40
21682;DHT22;11002;48.256;10.084;2022-07-30T08:01:45;20.50;46.40
21682;DHT22;11002;48.256;10.084;2022-07-30T08:04:32;20.50;46.40
21682;DHT22;11002;48.256;10.084;2022-07-30T08:07:22;20.50;46.30
21682;DHT22;11002;48.256;10.084;2022-07-30T08:10:19;20.50;46.20
21682;DHT22;11002;48.256;10.084;2022-07-30T08:13:22;20.50;46.20
21682;DHT22;11002;48.256;10.084;2022-07-30T08:16:21;20.50;46.20
21682;DHT22;11002;48.256;10.084;2022-07-30T08:19:09;20.50;46.30
21682;DHT22;11002;48.256;10.084;2022-07-30T08:21:42;20.50;46.30
21682;DHT22;11002;48.256;10.084;2022-07-30T08:24:15;20.50;46.30
21682;DHT22;11002;48.256;10.084;2022-07-30T08:26:43;20.50;46.30
21682;DHT22;11002;48.256;10.084;2022-07-30T08:29:10;20.50;46.40
21682;DHT22;11002;48.256;10.084;2022-07-30T08:31:38;20.50;46.30
21682;DHT22;11002;48.256;10.084;2022-07-30T08:34:06;20.50;46.30
21682;DHT22;11002;48.256;10.084;2022-07-30T08:36:33;20.50;46.30
21682;DHT22;11002;48.256;10.084;2022-07-30T08:39:03;20.60;47.10
21682;DHT22;11002;48.256;10.084;2022-07-30T08:41:31;20.50;46.30
21682;DHT22;11002;48.256;10.084;2022-07-30T08:43:59;20.50;46.40
21682;DHT22;11002;48.256;10.084;2022-07-30T08:46:30;20.50;46.40
21682;DHT22;11002;48.256;10.084;2022-07-30T08:49:05;20.50;46.40
21682;DHT22;11002;48.256;10.084;2022-07-30T08:51:33;20.50;46.40
21682;DHT22;11002;48.256;10.084;2022-07-30T08:54:26;20.50;46.40
21682;DHT22;11002;48.256;10.084;2022-07-30T08:56:53;20.50;46.40
21682;DHT22;11002;48.256;10.084;2022-07-30T08:59:23;20.50;46.40
21682;DHT22;11002;48.256;10.084;2022-07-30T09:01:50;20.50;46.40
21682;DHT22;11002;48.256;10.084;2022-07-30T09:04:18;20.50;46.40
21682;DHT22;11002;48.256;10.084;2022-07-30T09:06:46;20.50;46.40
21682;DHT22;11002;48.256;10.084;2022-07-30T09:09:15;20.50;46.40
21682;DHT22;11002;48.256;10.084;2022-07-30T09:11:43;20.50;46.40
21682;DHT22;11002;48.256;10.084;2022-07-30T09:14:12;20.50;46.40
21682;DHT22;11002;48.256;10.084;2022-07-30T09:16:42;20.50;46.40
21682;DHT22;11002;48.256;10.084;2022-07-30T09:19:13;20.60;46.40
21682;DHT22;11002;48.256;10.084;2022-07-30T09:21:40;20.50;46.30
21682;DHT22;11002;48.256;10.084;2022-07-30T09:24:20;20.60;46.40
21682;DHT22;11002;48.256;10.084;2022-07-30T09:27:07;20.60;46.40
21682;DHT22;11002;48.256;10.084;2022-07-30T09:29:56;20.60;46.40
21682;DHT22;11002;48.256;10.084;2022-07-30T09:32:50;20.50;46.40
21682;DHT22;11002;48.256;10.084;2022-07-30T09:35:41;20.60;46.40
21682;DHT22;11002;48.256;10.084;2022-07-30T09:38:09;20.60;46.40
21682;DHT22;11002;48.256;10.084;2022-07-30T09:40:52;20.60;46.40
21682;DHT22;11002;48.256;10.084;2022-07-30T09:43:45;20.60;46.50
21682;DHT22;11002;48.256;10.084;2022-07-30T09:46:21;20.60;46.40
21682;DHT22;11002;48.256;10.084;2022-07-30T09:48:49;20.60;46.40
21682;DHT22;11002;48.256;10.084;2022-07-30T09:51:18;20.60;46.60
21682;DHT22;11002;48.256;10.084;2022-07-30T09:53:55;20.60;46.60
21682;DHT22;11002;48.256;10.084;2022-07-30T09:56:25;20.60;46.70
21682;DHT22;11002;48.256;10.084;2022-07-30T09:58:54;20.60;46.60
21682;DHT22;11002;48.256;10.084;2022-07-30T10:01:22;20.60;46.70
21682;DHT22;11002;48.256;10.084;2022-07-30T10:04:08;20.60;46.70
21682;DHT22;11002;48.256;10.084;2022-07-30T10:07:02;20.60;46.80
21682;DHT22;11002;48.256;10.084;2022-07-30T10:09:37;20.60;46.70
21682;DHT22;11002;48.256;10.084;2022-07-30T10:12:12;20.60;46.80
21682;DHT22;11002;48.256;10.084;2022-07-30T10:14:45;20.60;46.80
21682;DHT22;11002;48.256;10.084;2022-07-30T10:17:18;20.60;46.90
21682;DHT22;11002;48.256;10.084;2022-07-30T10:20:08;20.60;46.90
21682;DHT22;11002;48.256;10.084;2022-07-30T10:22:49;20.60;46.90
21682;DHT22;11002;48.256;10.084;2022-07-30T10:25:35;20.70;47.00
21682;DHT22;11002;48.256;10.084;2022-07-30T10:28:23;20.70;47.00
21682;DHT22;11002;48.256;10.084;2022-07-30T10:30:52;20.70;47.10
21682;DHT22;11002;48.256;10.084;2022-07-30T10:33:22;20.60;47.00
21682;DHT22;11002;48.256;10.084;2022-07-30T10:35:49;20.70;47.10
21682;DHT22;11002;48.256;10.084;2022-07-30T10:38:20;20.70;47.20
21682;DHT22;11002;48.256;10.084;2022-07-30T10:40:53;20.70;47.70
21682;DHT22;11002;48.256;10.084;2022-07-30T10:43:43;20.70;47.80
21682;DHT22;11002;48.256;10.084;2022-07-30T10:46:22;20.70;47.90
21682;DHT22;11002;48.256;10.084;2022-07-30T10:48:53;20.70;48.10
21682;DHT22;11002;48.256;10.084;2022-07-30T10:51:41;20.70;48.40
21682;DHT22;11002;48.256;10.084;2022-07-30T10:54:36;20.60;48.70
21682;DHT22;11002;48.256;10.084;2022-07-30T10:57:05;20.60;48.50
21682;DHT22;11002;48.256;10.084;2022-07-30T11:00:09;20.60;48.40
21682;DHT22;11002;48.256;10.084;2022-07-30T11:03:12;20.60;48.70
21682;DHT22;11002;48.256;10.084;2022-07-30T11:05:40;20.60;48.70
21682;DHT22;11002;48.256;10.084;2022-07-30T11:08:32;20.60;48.70
21682;DHT22;11002;48.256;10.084;2022-07-30T11:11:00;20.60;48.80
21682;DHT22;11002;48.256;10.084;2022-07-30T11:13:52;20.60;48.70
21682;DHT22;11002;48.256;10.084;2022-07-30T11:16:21;20.60;48.80
21682;DHT22;11002;48.256;10.084;2022-07-30T11:19:05;20.60;48.80
21682;DHT22;11002;48.256;10.084;2022-07-30T11:21:33;20.60;48.80
21682;DHT22;11002;48.256;10.084;2022-07-30T11:24:01;20.70;48.90
21682;DHT22;11002;48.256;10.084;2022-07-30T11:26:48;20.70;48.90
21682;DHT22;11002;48.256;10.084;2022-07-30T11:29:35;20.60;48.70
21682;DHT22;11002;48.256;10.084;2022-07-30T11:32:22;20.70;48.80
21682;DHT22;11002;48.256;10.084;2022-07-30T11:35:13;20.70;48.70
21682;DHT22;11002;48.256;10.084;2022-07-30T11:38:02;20.70;48.50
21682;DHT22;11002;48.256;10.084;2022-07-30T11:40:31;20.70;48.40
21682;DHT22;11002;48.256;10.084;2022-07-30T11:43:17;20.70;48.20
21682;DHT22;11002;48.256;10.084;2022-07-30T11:45:45;20.70;48.30
21682;DHT22;11002;48.256;10.084;2022-07-30T11:48:15;20.70;48.10
21682;DHT22;11002;48.256;10.084;2022-07-30T11:50:45;20.70;48.20
21682;DHT22;11002;48.256;10.084;2022-07-30T11:53:15;20.70;48.20
21682;DHT22;11002;48.256;10.084;2022-07-30T11:55:45;20.70;48.00
21682;DHT22;11002;48.256;10.084;2022-07-30T11:58:24;20.70;47.90
21682;DHT22;11002;48.256;10.084;2022-07-30T12:00:52;20.60;47.70
21682;DHT22;11002;48.256;10.084;2022-07-30T12:03:21;20.60;47.60
21682;DHT22;11002;48.256;10.084;2022-07-30T12:05:50;20.60;47.60
21682;DHT22;11002;48.256;10.084;2022-07-30T12:08:18;20.70;47.70
21682;DHT22;11002;48.256;10.084;2022-07-30T12:10:55;20.70;47.60
21682;DHT22;11002;48.256;10.084;2022-07-30T12:13:23;20.70;47.50
21682;DHT22;11002;48.256;10.084;2022-07-30T12:15:50;20.60;47.40
21682;DHT22;11002;48.256;10.084;2022-07-30T12:18:23;20.70;47.50
21682;DHT22;11002;48.256;10.084;2022-07-30T12:21:00;20.70;47.60
21682;DHT22;11002;48.256;10.084;2022-07-30T12:23:29;20.70;47.50
21682;DHT22;11002;48.256;10.084;2022-07-30T12:25:57;20.70;47.60
21682;DHT22;11002;48.256;10.084;2022-07-30T12:28:27;20.70;47.50
21682;DHT22;11002;48.256;10.084;2022-07-30T12:30:56;20.70;47.60
21682;DHT22;11002;48.256;10.084;2022-07-30T12:33:24;20.70;47.60
21682;DHT22;11002;48.256;10.084;2022-07-30T12:35:53;20.70;47.60
21682;DHT22;11002;48.256;10.084;2022-07-30T12:38:24;20.60;47.60
21682;DHT22;11002;48.256;10.084;2022-07-30T12:40:57;20.70;47.60
21682;DHT22;11002;48.256;10.084;2022-07-30T12:43:47;20.60;47.50
21682;DHT22;11002;48.256;10.084;2022-07-30T12:46:17;20.60;47.50
21682;DHT22;11002;48.256;10.084;2022-07-30T12:48:51;20.60;47.50
21682;DHT22;11002;48.256;10.084;2022-07-30T12:51:20;20.60;47.50
21682;DHT22;11002;48.256;10.084;2022-07-30T12:53:50;20.60;48.30
21682;DHT22;11002;48.256;10.084;2022-07-30T12:56:20;20.60;47.50
21682;DHT22;11002;48.256;10.084;2022-07-30T12:58:48;20.60;47.60
21682;DHT22;11002;48.256;10.084;2022-07-30T13:01:16;20.60;47.60
21682;DHT22;11002;48.256;10.084;2022-07-30T13:03:43;20.60;48.30
21682;DHT22;11002;48.256;10.084;2022-07-30T13:06:13;20.60;47.60
21682;DHT22;11002;48.256;10.084;2022-07-30T13:08:52;20.60;47.50
21682;DHT22;11002;48.256;10.084;2022-07-30T13:11:22;20.60;47.50
21682;DHT22;11002;48.256;10.084;2022-07-30T13:13:51;20.60;47.50
21682;DHT22;11002;48.256;10.084;2022-07-30T13:16:19;20.60;47.50
21682;DHT22;11002;48.256;10.084;2022-07-30T13:18:47;20.60;47.40
21682;DHT22;11002;48.256;10.084;2022-07-30T13:21:14;20.60;47.40
21682;DHT22;11002;48.256;10.084;2022-07-30T13:23:41;20.60;47.50
21682;DHT22;11002;48.256;10.084;2022-07-30T13:26:10;20.60;47.50
21682;DHT22;11002;48.256;10.084;2022-07-30T13:28:38;20.60;47.50
21682;DHT22;11002;48.256;10.084;2022-07-30T13:31:06;20.70;47.60
21682;DHT22;11002;48.256;10.084;2022-07-30T13:33:34;20.70;47.50
21682;DHT22;11002;48.256;10.084;2022-07-30T13:36:02;20.70;47.40
21682;DHT22;11002;48.256;10.084;2022-07-30T13:38:29;20.70;47.20
21682;DHT22;11002;48.256;10.084;2022-07-30T13:40:57;20.70;47.30
21682;DHT22;11002;48.256;10.084;2022-07-30T13:43:26;20.70;47.20
21682;DHT22;11002;48.256;10.084;2022-07-30T13:45:54;20.70;47.20
21682;DHT22;11002;48.256;10.084;2022-07-30T13:48:22;20.70;47.20
21682;DHT22;11002;48.256;10.084;2022-07-30T13:50:49;20.70;47.30
21682;DHT22;11002;48.256;10.084;2022-07-30T13:53:16;20.70;47.30
21682;DHT22;11002;48.256;10.084;2022-07-30T13:55:44;20.70;47.30
21682;DHT22;11002;48.256;10.084;2022-07-30T13:58:12;20.70;47.30
21682;DHT22;11002;48.256;10.084;2022-07-30T14:00:41;20.70;47.30
21682;DHT22;11002;48.256;10.084;2022-07-30T14:03:10;20.70;47.30
21682;DHT22;11002;48.256;10.084;2022-07-30T14:05:37;20.70;47.30
21682;DHT22;11002;48.256;10.084;2022-07-30T14:08:07;20.60;47.20
21682;DHT22;11002;48.256;10.084;2022-07-30T14:10:35;20.70;47.30
21682;DHT22;11002;48.256;10.084;2022-07-30T14:13:03;20.60;47.20
21682;DHT22;11002;48.256;10.084;2022-07-30T14:15:32;20.70;47.30
21682;DHT22;11002;48.256;10.084;2022-07-30T14:18:01;20.60;47.20
21682;DHT22;11002;48.256;10.084;2022-07-30T14:20:28;20.60;47.10
21682;DHT22;11002;48.256;10.084;2022-07-30T14:22:56;20.60;47.20
21682;DHT22;11002;48.256;10.084;2022-07-30T14:25:24;20.60;47.20
21682;DHT22;11002;48.256;10.084;2022-07-30T14:27:51;20.60;47.10
21682;DHT22;11002;48.256;10.084;2022-07-30T14:30:19;20.60;47.20
21682;DHT22;11002;48.256;10.084;2022-07-30T14:32:46;20.60;47.10
21682;DHT22;11002;48.256;10.084;2022-07-30T14:35:15;20.60;47.10
21682;DHT22;11002;48.256;10.084;2022-07-30T14:37:43;20.60;47.20
21682;DHT22;11002;48.256;10.084;2022-07-30T14:40:11;20.60;47.10
21682;DHT22;11002;48.256;10.084;2022-07-30T14:42:38;20.60;47.20
21682;DHT22;11002;48.256;10.084;2022-07-30T14:45:07;20.60;47.10
21682;DHT22;11002;48.256;10.084;2022-07-30T14:47:38;20.60;47.20
21682;DHT22;11002;48.256;10.084;2022-07-30T14:50:06;20.60;47.10
21682;DHT22;11002;48.256;10.084;2022-07-30T14:52:37;20.60;47.10
21682;DHT22;11002;48.256;10.084;2022-07-30T14:55:05;20.60;47.10
21682;DHT22;11002;48.256;10.084;2022-07-30T14:57:33;20.60;47.20
21682;DHT22;11002;48.256;10.084;2022-07-30T15:00:02;20.60;47.10
21682;DHT22;11002;48.256;10.084;2022-07-30T15:02:30;20.60;47.10
21682;DHT22;11002;48.256;10.084;2022-07-30T15:04:57;20.60;47.10
21682;DHT22;11002;48.256;10.084;2022-07-30T15:07:25;20.60;47.10
21682;DHT22;11002;48.256;10.084;2022-07-30T15:09:54;20.60;47.10
21682;DHT22;11002;48.256;10.084;2022-07-30T15:12:21;20.60;47.10
21682;DHT22;11002;48.256;10.084;2022-07-30T15:14:49;20.60;47.10
21682;DHT22;11002;48.256;10.084;2022-07-30T15:17:16;20.60;47.00
21682;DHT22;11002;48.256;10.084;2022-07-30T15:19:43;20.60;47.10
21682;DHT22;11002;48.256;10.084;2022-07-30T15:22:11;20.60;47.10
21682;DHT22;11002;48.256;10.084;2022-07-30T15:24:38;20.60;47.00
21682;DHT22;11002;48.256;10.084;2022-07-30T15:27:07;20.60;47.00
21682;DHT22;11002;48.256;10.084;2022-07-30T15:29:34;20.60;47.00
21682;DHT22;11002;48.256;10.084;2022-07-30T15:32:02;20.60;47.00
21682;DHT22;11002;48.256;10.084;2022-07-30T15:34:29;20.60;47.00
21682;DHT22;11002;48.256;10.084;2022-07-30T15:36:59;20.60;47.10
21682;DHT22;11002;48.256;10.084;2022-07-30T15:39:27;20.60;47.00
21682;DHT22;11002;48.256;10.084;2022-07-30T15:41:57;20.60;47.00
21682;DHT22;11002;48.256;10.084;2022-07-30T15:44:26;20.60;47.00